Oakland (OAK/KOAK)

Information

Location
Oakland, CA
Local Time
17:20 / 5:20 pm
GMT Time
00:20 / 12:20 am
Gates
Unassigned
No FAA reported delays
METAR KOAK 222353Z 28019KT 10SM FEW025 SCT046 SCT060 16/07 A3007 RMK AO2 SLP182 T01560067 10172 20144 58003
TAF KOAK 222338Z 2300/2406 28017KT P6SM SCT040 FM230400 28011KT P6SM FEW050 FEW100 FM230900 28006KT P6SM FEW030 FM231100 VRB04KT P6SM FEW020 FM231800 25007KT P6SM SKC FM232200 24011KT P6SM SCT200 FM240400 16006KT P6SM BKN120
  • No charts available